Alton, Maine
Current Conditions -  °F | °C
As of 4:53 PM on Saturday 20 Dec 2014 (Local Time) from KBGR Reporting Station
Overcast Overcast  
Wind Chill: 15°   Ceiling: 1200
Heat Index: 23°   Visibility: 10mi
Dew Point: 18°   Wind: 7mph
Humidity: 81%   Direction: 360°N
Pressure: 30.36"   Gusts: NA
Location:  45.0236°N, 68.7394°W
Report Text: KBGR 202153Z 36006KT 10SM OVC012 M05/M08 A3036 RMK AO2 SLP285 T10501078
Loading
Personal Weather Stations






























Interactive Weather Map New forecast layout! Learn more

10-Day Weather Forecast

Advertisements
Track Severe Weather on mobile